Time,TemperatureF,DewpointF,PressureIn,WindDirection,WindDirectionDegrees,WindSpeedMPH,WindSpeedGustMPH,Humidity,HourlyPrecipIn,Conditions,Clouds,dailyrainin,SoftwareType,DateUTC
2013-02-11 00:03:00,33.6,19.6,28.52,ENE,68,0.9,2.5,56,0.00,,---,0.00,VWS V14.00,2013-02-11 06:03:00,
2013-02-11 00:09:00,33.6,19.6,28.52,NNE,22,1.6,2.5,56,0.00,,---,0.00,VWS V14.00,2013-02-11 06:09:00,
2013-02-11 00:14:00,33.4,19.4,28.52,NNE,22,3.4,3.6,56,0.00,,---,0.00,VWS V14.00,2013-02-11 06:14:00,
2013-02-11 00:20:00,33.3,19.7,28.52,NNW,338,1.6,2.2,57,0.00,,---,0.00,VWS V14.00,2013-02-11 06:20:00,
2013-02-11 00:26:00,33.1,19.5,28.52,NNW,338,2.0,2.0,57,0.00,,---,0.00,VWS V14.00,2013-02-11 06:26:00,
2013-02-11 00:31:00,33.1,19.5,28.52,WSW,248,2.0,3.8,57,0.00,,---,0.00,VWS V14.00,2013-02-11 06:31:00,
2013-02-11 00:37:00,32.9,19.4,28.52,North,0,2.9,2.9,57,0.00,,---,0.00,VWS V14.00,2013-02-11 06:37:00,
2013-02-11 00:42:00,32.9,19.4,28.52,West,270,1.1,2.9,57,0.00,,---,0.00,VWS V14.00,2013-02-11 06:42:00,
2013-02-11 00:48:00,32.7,19.2,28.55,SSW,202,0.0,2.9,57,0.00,,---,0.00,VWS V14.00,2013-02-11 06:48:00,
2013-02-11 00:54:00,32.7,19.2,28.55,ENE,68,1.3,1.3,57,0.00,,---,0.00,VWS V14.00,2013-02-11 06:54:00,
2013-02-11 00:59:00,32.5,19.0,28.55,WNW,292,0.0,2.0,57,0.00,,---,0.00,VWS V14.00,2013-02-11 06:59:00,
2013-02-11 01:05:00,32.4,18.8,28.55,West,270,1.3,1.6,57,0.00,,---,0.00,VWS V14.00,2013-02-11 07:05:00,
2013-02-11 01:10:00,32.2,18.7,28.55,NNE,22,0.0,1.1,57,0.00,,---,0.00,VWS V14.00,2013-02-11 07:10:00,
2013-02-11 01:16:00,32.0,18.5,28.55,WNW,292,0.0,1.1,57,0.00,,---,0.00,VWS V14.00,2013-02-11 07:16:00,
2013-02-11 01:22:00,31.6,18.2,28.55,NNW,338,0.0,1.1,57,0.00,,---,0.00,VWS V14.00,2013-02-11 07:22:00,
2013-02-11 01:27:00,31.5,18.4,28.55,WSW,248,0.0,0.9,58,0.00,,---,0.00,VWS V14.00,2013-02-11 07:27:00,
2013-02-11 01:33:00,31.3,18.2,28.55,NNW,338,0.0,0.0,58,0.00,,---,0.00,VWS V14.00,2013-02-11 07:33:00,
2013-02-11 01:38:00,31.3,18.2,28.55,WNW,292,2.7,2.7,58,0.00,,---,0.00,VWS V14.00,2013-02-11 07:38:00,
2013-02-11 01:44:00,31.3,18.2,28.55,West,270,1.3,2.0,58,0.00,,---,0.00,VWS V14.00,2013-02-11 07:44:00,
2013-02-11 01:49:00,31.1,18.1,28.55,WNW,292,0.0,2.0,58,0.00,,---,0.00,VWS V14.00,2013-02-11 07:49:00,
2013-02-11 01:55:00,30.9,17.9,28.55,WNW,292,1.6,2.0,58,0.00,,---,0.00,VWS V14.00,2013-02-11 07:55:00,
2013-02-11 02:01:00,30.9,17.9,28.55,NW,315,2.5,2.5,58,0.00,,---,0.00,VWS V14.00,2013-02-11 08:01:00,
2013-02-11 02:06:00,30.9,18.3,28.55,NW,315,0.0,2.0,59,0.00,,---,0.00,VWS V14.00,2013-02-11 08:06:00,
2013-02-11 02:12:00,30.7,18.1,28.55,ENE,68,0.9,2.5,59,0.00,,---,0.00,VWS V14.00,2013-02-11 08:12:00,
2013-02-11 02:17:00,30.7,18.1,28.55,NW,315,0.0,4.3,59,0.00,,---,0.00,VWS V14.00,2013-02-11 08:17:00,
2013-02-11 02:22:00,30.7,18.1,28.55,WNW,292,1.1,2.0,59,0.00,,---,0.00,VWS V14.00,2013-02-11 08:22:00,
2013-02-11 02:28:00,30.6,18.0,28.55,WNW,292,0.0,2.0,59,0.00,,---,0.00,VWS V14.00,2013-02-11 08:28:00,
2013-02-11 02:33:00,30.6,18.3,28.55,West,270,0.0,1.1,60,0.00,,---,0.00,VWS V14.00,2013-02-11 08:33:00,
2013-02-11 02:38:00,30.4,18.2,28.55,NW,315,1.1,3.1,60,0.00,,---,0.00,VWS V14.00,2013-02-11 08:38:00,
2013-02-11 02:45:00,30.2,18.0,28.58,NW,315,2.0,2.7,60,0.00,,---,0.00,VWS V14.00,2013-02-11 08:45:00,
2013-02-11 02:51:00,30.2,18.4,28.58,WNW,292,1.6,1.6,61,0.00,,---,0.00,VWS V14.00,2013-02-11 08:51:00,
2013-02-11 02:58:00,30.2,18.4,28.58,WNW,292,1.1,1.6,61,0.00,,---,0.00,VWS V14.00,2013-02-11 08:58:00,
2013-02-11 03:03:00,30.0,18.2,28.58,North,0,2.7,3.4,61,0.00,,---,0.00,VWS V14.00,2013-02-11 09:03:00,
2013-02-11 03:09:00,29.8,18.0,28.58,NNW,338,0.0,0.9,61,0.00,,---,0.00,VWS V14.00,2013-02-11 09:09:00,
2013-02-11 03:14:00,29.8,18.4,28.58,WNW,292,0.0,0.0,62,0.00,,---,0.00,VWS V14.00,2013-02-11 09:14:00,
2013-02-11 03:20:00,29.8,18.4,28.55,WNW,292,0.0,0.0,62,0.00,,---,0.00,VWS V14.00,2013-02-11 09:20:00,
2013-02-11 03:26:00,29.8,18.4,28.55,NNE,22,0.0,1.1,62,0.00,,---,0.00,VWS V14.00,2013-02-11 09:26:00,
2013-02-11 03:32:00,29.8,18.4,28.58,North,0,0.0,0.9,62,0.00,,---,0.00,VWS V14.00,2013-02-11 09:32:00,
2013-02-11 03:37:00,29.7,18.6,28.58,NNW,338,2.0,2.0,63,0.00,,---,0.00,VWS V14.00,2013-02-11 09:37:00,
2013-02-11 03:43:00,29.7,18.6,28.58,North,0,0.9,1.3,63,0.00,,---,0.00,VWS V14.00,2013-02-11 09:43:00,
2013-02-11 03:48:00,29.5,18.5,28.58,WNW,292,0.9,2.0,63,0.00,,---,0.00,VWS V14.00,2013-02-11 09:48:00,
2013-02-11 03:54:00,29.5,18.8,28.58,NW,315,0.0,3.1,64,0.00,,---,0.00,VWS V14.00,2013-02-11 09:54:00,
2013-02-11 04:00:00,29.7,19.0,28.58,North,0,2.0,5.6,64,0.00,,---,0.00,VWS V14.00,2013-02-11 10:00:00,
2013-02-11 04:05:00,29.7,19.0,28.58,NW,315,2.9,6.5,64,0.00,,---,0.00,VWS V14.00,2013-02-11 10:05:00,
2013-02-11 04:11:00,29.7,19.0,28.58,NNW,338,1.6,2.7,64,0.00,,---,0.00,VWS V14.00,2013-02-11 10:11:00,
2013-02-11 04:17:00,29.8,19.2,28.58,North,0,2.5,2.5,64,0.00,,---,0.00,VWS V14.00,2013-02-11 10:17:00,
2013-02-11 04:22:00,29.8,18.8,28.58,NW,315,2.9,6.3,63,0.00,,---,0.00,VWS V14.00,2013-02-11 10:22:00,
2013-02-11 04:27:00,29.8,18.8,28.58,NNW,338,2.7,4.9,63,0.00,,---,0.00,VWS V14.00,2013-02-11 10:27:00,
2013-02-11 04:32:00,29.8,18.8,28.61,NNW,338,2.5,2.9,63,0.00,,---,0.00,VWS V14.00,2013-02-11 10:32:00,
2013-02-11 04:37:00,29.8,18.8,28.61,NNE,22,2.9,9.0,63,0.00,,---,0.00,VWS V14.00,2013-02-11 10:37:00,
2013-02-11 04:43:00,29.7,18.2,28.61,NNE,22,1.1,2.7,62,0.00,,---,0.00,VWS V14.00,2013-02-11 10:43:00,
2013-02-11 04:49:00,29.5,18.1,28.58,North,0,3.4,5.4,62,0.00,,---,0.00,VWS V14.00,2013-02-11 10:49:00,
2013-02-11 04:54:00,29.5,18.1,28.58,NW,315,2.9,3.8,62,0.00,,---,0.00,VWS V14.00,2013-02-11 10:54:00,
2013-02-11 05:00:00,29.5,18.1,28.58,NNE,22,2.5,3.8,62,0.00,,---,0.00,VWS V14.00,2013-02-11 11:00:00,
2013-02-11 05:06:00,29.5,18.1,28.61,NNE,22,3.1,5.6,62,0.00,,---,0.00,VWS V14.00,2013-02-11 11:06:00,
2013-02-11 05:12:00,29.3,17.9,28.61,NNW,338,2.9,3.6,62,0.00,,---,0.00,VWS V14.00,2013-02-11 11:12:00,
2013-02-11 05:17:00,29.3,17.9,28.61,North,0,3.4,4.0,62,0.00,,---,0.00,VWS V14.00,2013-02-11 11:17:00,
2013-02-11 05:22:00,29.1,17.7,28.61,NNW,338,0.0,3.1,62,0.00,,---,0.00,VWS V14.00,2013-02-11 11:22:00,
2013-02-11 05:28:00,29.1,17.7,28.61,NNW,338,1.1,1.6,62,0.00,,---,0.00,VWS V14.00,2013-02-11 11:28:00,
2013-02-11 05:33:00,28.9,17.6,28.61,WNW,292,1.6,3.6,62,0.00,,---,0.00,VWS V14.00,2013-02-11 11:33:00,
2013-02-11 05:38:00,28.9,17.6,28.61,North,0,1.1,2.7,62,0.00,,---,0.00,VWS V14.00,2013-02-11 11:38:00,
2013-02-11 05:44:00,28.8,17.8,28.61,NNW,338,2.0,4.3,63,0.00,,---,0.00,VWS V14.00,2013-02-11 11:44:00,
2013-02-11 05:49:00,28.6,17.6,28.61,NNE,22,2.5,2.5,63,0.00,,---,0.00,VWS V14.00,2013-02-11 11:49:00,
2013-02-11 05:56:00,28.6,17.6,28.61,NW,315,2.2,4.3,63,0.00,,---,0.00,VWS V14.00,2013-02-11 11:56:00,
2013-02-11 06:01:00,28.6,17.6,28.61,NNW,338,3.6,3.6,63,0.00,,---,0.00,VWS V14.00,2013-02-11 12:01:00,
2013-02-11 06:08:00,28.4,17.8,28.61,North,0,1.1,2.5,64,0.00,,---,0.00,VWS V14.00,2013-02-11 12:08:00,
2013-02-11 06:14:00,28.4,17.4,28.61,NNW,338,0.0,2.0,63,0.00,,---,0.00,VWS V14.00,2013-02-11 12:14:00,
2013-02-11 06:21:00,28.2,17.6,28.64,NNW,338,1.3,2.7,64,0.00,,---,0.00,VWS V14.00,2013-02-11 12:21:00,
2013-02-11 06:26:00,28.2,17.6,28.64,NNW,338,2.0,3.1,64,0.00,,---,0.00,VWS V14.00,2013-02-11 12:26:00,
2013-02-11 06:31:00,28.2,17.6,28.64,NNE,22,3.6,4.9,64,0.00,,---,0.00,VWS V14.00,2013-02-11 12:31:00,
2013-02-11 06:37:00,28.4,17.8,28.64,North,0,0.0,3.4,64,0.00,,---,0.00,VWS V14.00,2013-02-11 12:37:00,
2013-02-11 06:42:00,28.2,17.3,28.64,NW,315,3.6,3.6,63,0.00,,---,0.00,VWS V14.00,2013-02-11 12:42:00,
2013-02-11 06:47:00,28.2,17.3,28.64,WNW,292,1.3,1.3,63,0.00,,---,0.00,VWS V14.00,2013-02-11 12:47:00,
2013-02-11 06:52:00,28.2,17.3,28.64,WNW,292,1.6,2.2,63,0.00,,---,0.00,VWS V14.00,2013-02-11 12:52:00,
2013-02-11 06:58:00,28.2,17.3,28.64,NNE,22,0.0,2.7,63,0.00,,---,0.00,VWS V14.00,2013-02-11 12:58:00,
2013-02-11 07:03:00,28.0,17.1,28.64,NW,315,0.0,2.0,63,0.00,,---,0.00,VWS V14.00,2013-02-11 13:03:00,
2013-02-11 07:09:00,28.0,17.1,28.64,NNE,22,2.5,3.6,63,0.00,,---,0.00,VWS V14.00,2013-02-11 13:09:00,
2013-02-11 07:14:00,28.0,17.1,28.64,WNW,292,0.9,3.1,63,0.00,,---,0.00,VWS V14.00,2013-02-11 13:14:00,
2013-02-11 07:19:00,28.0,17.1,28.64,North,0,2.0,3.1,63,0.00,,---,0.00,VWS V14.00,2013-02-11 13:19:00,
2013-02-11 07:24:00,27.9,16.9,28.64,NNE,22,4.0,4.0,63,0.00,,---,0.00,VWS V14.00,2013-02-11 13:24:00,
2013-02-11 07:29:00,27.9,16.9,28.64,NW,315,1.6,1.6,63,0.00,,---,0.00,VWS V14.00,2013-02-11 13:29:00,
2013-02-11 07:35:00,27.9,16.9,28.64,NNW,338,2.2,4.9,63,0.00,,---,0.00,VWS V14.00,2013-02-11 13:35:00,
2013-02-11 07:40:00,28.0,16.7,28.64,NNW,338,2.5,2.5,62,0.00,,---,0.00,VWS V14.00,2013-02-11 13:40:00,
2013-02-11 07:45:00,28.0,16.7,28.64,North,0,2.5,5.8,62,0.00,,---,0.00,VWS V14.00,2013-02-11 13:45:00,
2013-02-11 07:50:00,28.2,16.5,28.64,North,0,4.0,4.0,61,0.00,,---,0.00,VWS V14.00,2013-02-11 13:50:00,
2013-02-11 07:55:00,28.2,16.5,28.64,NNW,338,3.1,5.8,61,0.00,,---,0.00,VWS V14.00,2013-02-11 13:55:00,
2013-02-11 08:00:00,28.4,16.7,28.64,NNE,22,2.7,4.3,61,0.00,,---,0.00,VWS V14.00,2013-02-11 14:00:00,
2013-02-11 08:05:00,28.4,16.3,28.67,North,0,2.9,6.0,60,0.00,,---,0.00,VWS V14.00,2013-02-11 14:05:00,
2013-02-11 08:10:00,28.6,16.5,28.67,North,0,1.6,3.6,60,0.00,,---,0.00,VWS V14.00,2013-02-11 14:10:00,
2013-02-11 08:15:00,28.8,16.2,28.67,North,0,2.5,5.4,59,0.00,,---,0.00,VWS V14.00,2013-02-11 14:15:00,
2013-02-11 08:20:00,28.9,16.4,28.67,North,0,3.8,5.4,59,0.00,,---,0.00,VWS V14.00,2013-02-11 14:20:00,
2013-02-11 08:25:00,29.1,16.6,28.67,North,0,2.9,5.6,59,0.00,,---,0.00,VWS V14.00,2013-02-11 14:25:00,
2013-02-11 08:30:00,29.3,16.4,28.67,NW,315,2.7,3.4,58,0.00,,---,0.00,VWS V14.00,2013-02-11 14:30:00,
2013-02-11 08:36:00,29.5,16.5,28.67,NNW,338,2.5,6.3,58,0.00,,---,0.00,VWS V14.00,2013-02-11 14:36:00,
2013-02-11 08:41:00,29.8,16.1,28.67,North,0,5.6,6.3,56,0.00,,---,0.00,VWS V14.00,2013-02-11 14:41:00,
2013-02-11 08:46:00,30.2,16.4,28.67,NNW,338,2.5,6.5,56,0.00,,---,0.00,VWS V14.00,2013-02-11 14:46:00,
2013-02-11 08:51:00,30.4,15.7,28.67,North,0,1.6,3.4,54,0.00,,---,0.00,VWS V14.00,2013-02-11 14:51:00,
2013-02-11 08:56:00,30.7,15.6,28.67,NNW,338,3.4,7.8,53,0.00,,---,0.00,VWS V14.00,2013-02-11 14:56:00,
2013-02-11 09:01:00,30.9,15.8,28.67,North,0,4.5,4.9,53,0.00,,---,0.00,VWS V14.00,2013-02-11 15:01:00,
2013-02-11 09:06:00,31.1,15.5,28.67,NW,315,2.9,6.7,52,0.00,,---,0.00,VWS V14.00,2013-02-11 15:06:00,
2013-02-11 09:11:00,31.5,15.9,28.67,North,0,7.2,7.6,52,0.00,,---,0.00,VWS V14.00,2013-02-11 15:11:00,
2013-02-11 09:16:00,31.8,15.8,28.67,NNE,22,3.4,5.8,51,0.00,,---,0.00,VWS V14.00,2013-02-11 15:16:00,
2013-02-11 09:21:00,32.0,15.5,28.67,North,0,7.8,8.5,50,0.00,,---,0.00,VWS V14.00,2013-02-11 15:21:00,
2013-02-11 09:26:00,32.2,15.2,28.67,North,0,3.1,6.9,49,0.00,,---,0.00,VWS V14.00,2013-02-11 15:26:00,
2013-02-11 09:31:00,32.7,15.7,28.67,North,0,2.5,4.7,49,0.00,,---,0.00,VWS V14.00,2013-02-11 15:31:00,
2013-02-11 09:36:00,33.6,15.6,28.67,NE,45,5.6,10.5,47,0.00,,---,0.00,VWS V14.00,2013-02-11 15:36:00,
2013-02-11 09:41:00,34.3,15.2,28.67,NNE,22,3.4,7.8,45,0.00,,---,0.00,VWS V14.00,2013-02-11 15:41:00,
2013-02-11 09:46:00,35.4,16.2,28.67,NNW,338,4.7,6.9,45,0.00,,---,0.00,VWS V14.00,2013-02-11 15:46:00,
2013-02-11 09:51:00,35.8,15.5,28.67,NW,315,1.6,8.1,43,0.00,,---,0.00,VWS V14.00,2013-02-11 15:51:00,
2013-02-11 09:56:00,36.3,16.0,28.67,North,0,6.0,6.5,43,0.00,,---,0.00,VWS V14.00,2013-02-11 15:56:00,
2013-02-11 10:01:00,36.7,15.8,28.67,NNE,22,5.6,5.6,42,0.00,,---,0.00,VWS V14.00,2013-02-11 16:01:00,
2013-02-11 10:07:00,37.4,15.9,28.67,NNW,338,6.3,8.1,41,0.00,,---,0.00,VWS V14.00,2013-02-11 16:07:00,
2013-02-11 10:12:00,37.9,16.4,28.67,NNW,338,6.9,6.9,41,0.00,,---,0.00,VWS V14.00,2013-02-11 16:12:00,
2013-02-11 10:18:00,38.5,16.8,28.67,NNE,22,6.7,7.2,41,0.00,,---,0.00,VWS V14.00,2013-02-11 16:18:00,
2013-02-11 10:23:00,38.7,17.0,28.67,NNW,338,3.6,5.8,41,0.00,,---,0.00,VWS V14.00,2013-02-11 16:23:00,
2013-02-11 10:28:00,39.6,17.2,28.67,North,0,2.7,5.4,40,0.00,,---,0.00,VWS V14.00,2013-02-11 16:28:00,
2013-02-11 10:33:00,40.1,17.7,28.67,NNW,338,2.7,3.1,40,0.00,,---,0.00,VWS V14.00,2013-02-11 16:33:00,
2013-02-11 10:38:00,40.1,17.1,28.67,North,0,4.9,7.4,39,0.00,,---,0.00,VWS V14.00,2013-02-11 16:38:00,
2013-02-11 10:43:00,39.7,16.8,28.67,NNW,338,3.4,5.4,39,0.00,,---,0.00,VWS V14.00,2013-02-11 16:43:00,
2013-02-11 10:48:00,39.7,16.8,28.64,NNW,338,3.1,3.6,39,0.00,,---,0.00,VWS V14.00,2013-02-11 16:48:00,
2013-02-11 10:53:00,39.2,16.3,28.64,NNW,338,2.0,6.5,39,0.00,,---,0.00,VWS V14.00,2013-02-11 16:53:00,
2013-02-11 10:58:00,39.9,17.0,28.64,NNE,22,3.1,6.5,39,0.00,,---,0.00,VWS V14.00,2013-02-11 16:58:00,
2013-02-11 11:04:00,40.3,17.3,28.64,WNW,292,4.3,4.3,39,0.00,,---,0.00,VWS V14.00,2013-02-11 17:04:00,
2013-02-11 11:09:00,40.5,17.5,28.64,North,0,3.6,4.9,39,0.00,,---,0.00,VWS V14.00,2013-02-11 17:09:00,
2013-02-11 11:14:00,41.0,18.0,28.64,NNW,338,6.0,6.0,39,0.00,,---,0.00,VWS V14.00,2013-02-11 17:14:00,
2013-02-11 11:19:00,41.0,17.4,28.61,NNE,22,3.6,8.1,38,0.00,,---,0.00,VWS V14.00,2013-02-11 17:19:00,
2013-02-11 11:24:00,41.4,17.7,28.61,North,0,4.3,6.3,38,0.00,,---,0.00,VWS V14.00,2013-02-11 17:24:00,
2013-02-11 11:29:00,41.4,17.7,28.61,North,0,4.0,5.8,38,0.00,,---,0.00,VWS V14.00,2013-02-11 17:29:00,
2013-02-11 11:34:00,41.7,18.0,28.61,North,0,3.8,7.6,38,0.00,,---,0.00,VWS V14.00,2013-02-11 17:34:00,
2013-02-11 11:40:00,41.5,17.8,28.61,NW,315,3.4,8.1,38,0.00,,---,0.00,VWS V14.00,2013-02-11 17:40:00,
2013-02-11 11:46:00,42.3,18.5,28.61,ENE,68,2.2,5.6,38,0.00,,---,0.00,VWS V14.00,2013-02-11 17:46:00,
2013-02-11 11:51:00,42.4,18.6,28.61,NNE,22,6.5,6.5,38,0.00,,---,0.00,VWS V14.00,2013-02-11 17:51:00,
2013-02-11 11:56:00,42.6,18.8,28.61,North,0,5.6,6.5,38,0.00,,---,0.00,VWS V14.00,2013-02-11 17:56:00,
2013-02-11 12:02:00,42.8,19.0,28.64,NNW,338,5.8,5.8,38,0.00,,---,0.00,VWS V14.00,2013-02-11 18:02:00,
2013-02-11 12:07:00,42.4,18.0,28.64,NNW,338,2.9,8.1,37,0.00,,---,0.00,VWS V14.00,2013-02-11 18:07:00,
2013-02-11 12:12:00,43.3,19.5,28.64,SSE,158,3.8,3.8,38,0.00,,---,0.00,VWS V14.00,2013-02-11 18:12:00,
2013-02-11 12:17:00,43.3,19.5,28.58,North,0,3.8,5.4,38,0.00,,---,0.00,VWS V14.00,2013-02-11 18:17:00,
2013-02-11 12:22:00,43.5,19.0,28.58,North,0,8.5,8.5,37,0.00,,---,0.00,VWS V14.00,2013-02-11 18:22:00,
2013-02-11 12:27:00,43.5,19.0,28.58,NNW,338,2.9,4.7,37,0.00,,---,0.00,VWS V14.00,2013-02-11 18:27:00,
2013-02-11 12:33:00,43.7,19.1,28.61,NNE,22,3.6,4.0,37,0.00,,---,0.00,VWS V14.00,2013-02-11 18:33:00,
2013-02-11 12:38:00,44.2,19.0,28.61,North,0,4.0,8.1,36,0.00,,---,0.00,VWS V14.00,2013-02-11 18:38:00,
2013-02-11 12:43:00,44.4,19.8,28.61,NNE,22,3.1,3.4,37,0.00,,---,0.00,VWS V14.00,2013-02-11 18:43:00,
2013-02-11 12:48:00,44.8,19.5,28.61,NNE,22,2.9,5.8,36,0.00,,---,0.00,VWS V14.00,2013-02-11 18:48:00,
2013-02-11 12:53:00,45.1,19.8,28.61,North,0,2.9,5.6,36,0.00,,---,0.00,VWS V14.00,2013-02-11 18:53:00,
2013-02-11 12:58:00,45.3,19.3,28.61,NNE,22,5.4,9.6,35,0.00,,---,0.00,VWS V14.00,2013-02-11 18:58:00,
2013-02-11 13:03:00,45.5,19.5,28.61,North,0,4.0,4.9,35,0.00,,---,0.00,VWS V14.00,2013-02-11 19:03:00,
2013-02-11 13:09:00,45.3,18.6,28.61,North,0,3.8,7.6,34,0.00,,---,0.00,VWS V14.00,2013-02-11 19:09:00,
2013-02-11 13:14:00,45.5,18.8,28.61,NNE,22,6.5,6.5,34,0.00,,---,0.00,VWS V14.00,2013-02-11 19:14:00,
2013-02-11 13:19:00,46.0,19.9,28.58,North,0,2.7,4.3,35,0.00,,---,0.00,VWS V14.00,2013-02-11 19:19:00,
2013-02-11 13:24:00,46.6,19.7,28.58,NW,315,4.9,6.3,34,0.00,,---,0.00,VWS V14.00,2013-02-11 19:24:00,
2013-02-11 13:29:00,45.9,18.4,28.58,NNE,22,7.2,8.1,33,0.00,,---,0.00,VWS V14.00,2013-02-11 19:29:00,
2013-02-11 13:34:00,46.2,19.4,28.61,NNE,22,3.4,5.6,34,0.00,,---,0.00,VWS V14.00,2013-02-11 19:34:00,
2013-02-11 13:39:00,46.0,19.3,28.61,NNW,338,3.6,6.3,34,0.00,,---,0.00,VWS V14.00,2013-02-11 19:39:00,
2013-02-11 13:44:00,46.4,18.9,28.61,NNW,338,2.9,5.4,33,0.00,,---,0.00,VWS V14.00,2013-02-11 19:44:00,
2013-02-11 13:49:00,46.2,18.7,28.61,NNW,338,2.9,5.8,33,0.00,,---,0.00,VWS V14.00,2013-02-11 19:49:00,
2013-02-11 13:54:00,46.0,18.6,28.61,NNE,22,3.1,8.5,33,0.00,,---,0.00,VWS V14.00,2013-02-11 19:54:00,
2013-02-11 13:59:00,45.7,18.2,28.61,North,0,2.9,6.5,33,0.00,,---,0.00,VWS V14.00,2013-02-11 19:59:00,
2013-02-11 14:05:00,46.6,19.7,28.61,NNE,22,3.6,3.6,34,0.00,,---,0.00,VWS V14.00,2013-02-11 20:05:00,
2013-02-11 14:10:00,46.8,19.2,28.61,NNE,22,3.1,5.4,33,0.00,,---,0.00,VWS V14.00,2013-02-11 20:10:00,
2013-02-11 14:16:00,46.4,18.9,28.61,NNE,22,2.7,7.8,33,0.00,,---,0.00,VWS V14.00,2013-02-11 20:16:00,
2013-02-11 14:21:00,46.9,19.4,28.61,NNE,22,1.3,5.6,33,0.00,,---,0.00,VWS V14.00,2013-02-11 20:21:00,
2013-02-11 14:26:00,46.9,19.4,28.61,NNE,22,3.6,3.6,33,0.00,,---,0.00,VWS V14.00,2013-02-11 20:26:00,
2013-02-11 14:32:00,46.8,19.2,28.58,NNE,22,2.7,2.7,33,0.00,,---,0.00,VWS V14.00,2013-02-11 20:32:00,
2013-02-11 14:37:00,46.6,19.0,28.58,NNE,22,3.6,3.6,33,0.00,,---,0.00,VWS V14.00,2013-02-11 20:37:00,
2013-02-11 14:44:00,46.2,19.4,28.58,North,0,2.9,5.6,34,0.00,,---,0.00,VWS V14.00,2013-02-11 20:44:00,
2013-02-11 14:50:00,46.0,19.3,28.58,NNW,338,2.5,3.1,34,0.00,,---,0.00,VWS V14.00,2013-02-11 20:50:00,
2013-02-11 14:55:00,46.0,19.3,28.58,WNW,292,2.5,3.6,34,0.00,,---,0.00,VWS V14.00,2013-02-11 20:55:00,
2013-02-11 15:01:00,45.9,19.1,28.58,North,0,4.7,4.7,34,0.00,,---,0.00,VWS V14.00,2013-02-11 21:01:00,
2013-02-11 15:06:00,45.5,18.8,28.58,NNE,22,3.1,3.6,34,0.00,,---,0.00,VWS V14.00,2013-02-11 21:06:00,
2013-02-11 15:12:00,45.3,17.9,28.58,NNE,22,2.7,4.9,33,0.00,,---,0.00,VWS V14.00,2013-02-11 21:12:00,
2013-02-11 15:18:00,45.3,18.6,28.55,North,0,1.6,3.1,34,0.00,,---,0.00,VWS V14.00,2013-02-11 21:18:00,
2013-02-11 15:23:00,45.1,18.5,28.55,North,0,2.5,4.7,34,0.00,,---,0.00,VWS V14.00,2013-02-11 21:23:00,
2013-02-11 15:29:00,45.3,18.6,28.55,North,0,2.7,3.4,34,0.00,,---,0.00,VWS V14.00,2013-02-11 21:29:00,
2013-02-11 15:35:00,45.1,18.5,28.55,NNE,22,4.0,6.5,34,0.00,,---,0.00,VWS V14.00,2013-02-11 21:35:00,
2013-02-11 15:40:00,45.0,18.3,28.55,NNE,22,4.3,4.3,34,0.00,,---,0.00,VWS V14.00,2013-02-11 21:40:00,
2013-02-11 15:46:00,44.8,18.1,28.55,North,0,5.4,5.8,34,0.00,,---,0.00,VWS V14.00,2013-02-11 21:46:00,
2013-02-11 15:51:00,44.6,18.7,28.55,NNW,338,0.0,2.9,35,0.00,,---,0.00,VWS V14.00,2013-02-11 21:51:00,
2013-02-11 15:57:00,44.8,18.8,28.55,North,0,2.0,2.7,35,0.00,,---,0.00,VWS V14.00,2013-02-11 21:57:00,
2013-02-11 16:02:00,44.4,18.5,28.58,North,0,2.0,3.4,35,0.00,,---,0.00,VWS V14.00,2013-02-11 22:02:00,
2013-02-11 16:08:00,44.2,18.3,28.58,North,0,2.5,2.5,35,0.00,,---,0.00,VWS V14.00,2013-02-11 22:08:00,
2013-02-11 16:14:00,44.2,18.3,28.58,North,0,2.9,3.1,35,0.00,,---,0.00,VWS V14.00,2013-02-11 22:14:00,
2013-02-11 16:19:00,43.9,17.4,28.58,NNW,338,3.1,3.4,34,0.00,,---,0.00,VWS V14.00,2013-02-11 22:19:00,
2013-02-11 16:25:00,44.1,17.5,28.58,NNE,22,2.2,3.8,34,0.00,,---,0.00,VWS V14.00,2013-02-11 22:25:00,
2013-02-11 16:30:00,44.2,18.3,28.58,SSW,202,2.0,2.5,35,0.00,,---,0.00,VWS V14.00,2013-02-11 22:30:00,
2013-02-11 16:35:00,44.1,18.2,28.58,North,0,3.4,4.3,35,0.00,,---,0.00,VWS V14.00,2013-02-11 22:35:00,
2013-02-11 16:41:00,43.7,17.2,28.58,NE,45,1.1,3.6,34,0.00,,---,0.00,VWS V14.00,2013-02-11 22:41:00,
2013-02-11 16:46:00,43.9,18.0,28.58,NNE,22,0.0,1.1,35,0.00,,---,0.00,VWS V14.00,2013-02-11 22:46:00,
2013-02-11 16:52:00,43.9,18.0,28.58,North,0,1.6,1.6,35,0.00,,---,0.00,VWS V14.00,2013-02-11 22:52:00,
2013-02-11 16:58:00,44.1,18.2,28.58,NNE,22,1.6,1.6,35,0.00,,---,0.00,VWS V14.00,2013-02-11 22:58:00,
2013-02-11 17:04:00,43.9,18.0,28.58,NNE,22,1.6,2.5,35,0.00,,---,0.00,VWS V14.00,2013-02-11 23:04:00,
2013-02-11 17:09:00,43.5,17.7,28.58,NNE,22,0.0,1.1,35,0.00,,---,0.00,VWS V14.00,2013-02-11 23:09:00,
2013-02-11 17:15:00,43.3,17.5,28.58,North,0,0.0,1.1,35,0.00,,---,0.00,VWS V14.00,2013-02-11 23:15:00,
2013-02-11 17:20:00,43.3,18.2,28.61,ENE,68,0.0,0.9,36,0.00,,---,0.00,VWS V14.00,2013-02-11 23:20:00,
2013-02-11 17:25:00,43.3,18.2,28.61,ENE,68,0.0,0.0,36,0.00,,---,0.00,VWS V14.00,2013-02-11 23:25:00,
2013-02-11 17:30:00,43.0,17.9,28.61,East,90,0.0,0.9,36,0.00,,---,0.00,VWS V14.00,2013-02-11 23:30:00,
2013-02-11 17:35:00,42.8,17.7,28.61,North,0,0.0,1.6,36,0.00,,---,0.00,VWS V14.00,2013-02-11 23:35:00,
2013-02-11 17:40:00,42.4,17.4,28.61,North,0,0.0,1.3,36,0.00,,---,0.00,VWS V14.00,2013-02-11 23:40:00,
2013-02-11 17:45:00,42.1,17.1,28.61,North,0,0.0,1.3,36,0.00,,---,0.00,VWS V14.00,2013-02-11 23:45:00,
2013-02-11 17:51:00,41.7,16.8,28.64,North,0,0.0,0.0,36,0.00,,---,0.00,VWS V14.00,2013-02-11 23:51:00,
2013-02-11 17:56:00,41.7,17.4,28.64,North,0,0.0,0.0,37,0.00,,---,0.00,VWS V14.00,2013-02-11 23:56:00,
2013-02-11 18:01:00,41.4,17.1,28.61,North,0,0.0,0.0,37,0.00,,---,0.00,VWS V14.00,2013-02-12 00:01:00,
2013-02-11 18:06:00,41.0,16.7,28.61,North,0,0.0,0.0,37,0.00,,---,0.00,VWS V14.00,2013-02-12 00:06:00,
2013-02-11 18:11:00,40.6,17.0,28.61,North,0,0.0,0.0,38,0.00,,---,0.00,VWS V14.00,2013-02-12 00:11:00,
2013-02-11 18:16:00,40.5,16.9,28.58,North,0,0.0,0.0,38,0.00,,---,0.00,VWS V14.00,2013-02-12 00:16:00,
2013-02-11 18:22:00,39.9,16.4,28.58,NE,45,0.0,0.0,38,0.00,,---,0.00,VWS V14.00,2013-02-12 00:22:00,
2013-02-11 18:28:00,39.6,16.1,28.58,NE,45,0.0,0.0,38,0.00,,---,0.00,VWS V14.00,2013-02-12 00:28:00,
2013-02-11 18:34:00,39.2,16.3,28.61,NE,45,0.0,0.0,39,0.00,,---,0.00,VWS V14.00,2013-02-12 00:34:00,
2013-02-11 18:39:00,38.8,16.0,28.61,NE,45,0.0,0.0,39,0.00,,---,0.00,VWS V14.00,2013-02-12 00:39:00,
2013-02-11 18:44:00,38.5,16.3,28.61,NE,45,0.0,0.0,40,0.00,,---,0.00,VWS V14.00,2013-02-12 00:44:00,
2013-02-11 18:49:00,38.1,15.9,28.61,NE,45,0.0,0.0,40,0.00,,---,0.00,VWS V14.00,2013-02-12 00:49:00,
2013-02-11 18:55:00,37.9,15.8,28.61,NE,45,0.0,0.0,40,0.00,,---,0.00,VWS V14.00,2013-02-12 00:55:00,
2013-02-11 19:00:00,37.6,15.5,28.61,NE,45,0.0,0.0,40,0.00,,---,0.00,VWS V14.00,2013-02-12 01:00:00,
2013-02-11 19:05:00,37.4,15.3,28.61,NE,45,0.0,0.0,40,0.00,,---,0.00,VWS V14.00,2013-02-12 01:05:00,
2013-02-11 19:11:00,37.0,15.5,28.61,NE,45,0.0,0.0,41,0.00,,---,0.00,VWS V14.00,2013-02-12 01:11:00,
2013-02-11 19:16:00,36.9,15.4,28.61,NE,45,0.0,0.0,41,0.00,,---,0.00,VWS V14.00,2013-02-12 01:16:00,
2013-02-11 19:21:00,36.5,15.6,28.61,NE,45,0.0,0.0,42,0.00,,---,0.00,VWS V14.00,2013-02-12 01:21:00,
2013-02-11 19:26:00,36.3,16.0,28.61,NE,45,0.0,0.0,43,0.00,,---,0.00,VWS V14.00,2013-02-12 01:26:00,
2013-02-11 19:31:00,36.1,15.8,28.61,NE,45,0.0,0.0,43,0.00,,---,0.00,VWS V14.00,2013-02-12 01:31:00,
2013-02-11 19:36:00,35.8,16.0,28.61,NE,45,0.0,0.0,44,0.00,,---,0.00,VWS V14.00,2013-02-12 01:36:00,
2013-02-11 19:41:00,35.6,16.4,28.61,NE,45,0.0,0.0,45,0.00,,---,0.00,VWS V14.00,2013-02-12 01:41:00,
2013-02-11 19:46:00,35.2,16.5,28.61,NE,45,0.0,0.0,46,0.00,,---,0.00,VWS V14.00,2013-02-12 01:46:00,
2013-02-11 19:52:00,35.1,16.4,28.61,NE,45,0.0,0.0,46,0.00,,---,0.00,VWS V14.00,2013-02-12 01:52:00,
2013-02-11 19:57:00,34.9,16.7,28.61,NE,45,0.0,0.0,47,0.00,,---,0.00,VWS V14.00,2013-02-12 01:57:00,
2013-02-11 20:03:00,34.9,16.7,28.61,NE,45,0.0,0.0,47,0.00,,---,0.00,VWS V14.00,2013-02-12 02:03:00,
2013-02-11 20:08:00,34.7,16.5,28.61,NE,45,0.0,0.0,47,0.00,,---,0.00,VWS V14.00,2013-02-12 02:08:00,
2013-02-11 20:13:00,34.5,16.4,28.61,NE,45,0.0,0.0,47,0.00,,---,0.00,VWS V14.00,2013-02-12 02:13:00,
2013-02-11 20:18:00,34.3,16.2,28.58,NE,45,0.0,0.0,47,0.00,,---,0.00,VWS V14.00,2013-02-12 02:18:00,
2013-02-11 20:24:00,34.3,16.7,28.58,NE,45,0.0,0.0,48,0.00,,---,0.00,VWS V14.00,2013-02-12 02:24:00,
2013-02-11 20:30:00,34.3,16.7,28.58,NE,45,0.0,0.0,48,0.00,,---,0.00,VWS V14.00,2013-02-12 02:30:00,
2013-02-11 20:35:00,34.3,17.2,28.64,NE,45,0.0,0.0,49,0.00,,---,0.00,VWS V14.00,2013-02-12 02:35:00,
2013-02-11 20:41:00,34.2,16.5,28.64,NE,45,0.0,0.0,48,0.00,,---,0.00,VWS V14.00,2013-02-12 02:41:00,
2013-02-11 20:46:00,34.0,16.8,28.58,NE,45,0.0,0.0,49,0.00,,---,0.00,VWS V14.00,2013-02-12 02:46:00,
2013-02-11 20:51:00,34.0,17.3,28.58,NE,45,0.0,0.0,50,0.00,,---,0.00,VWS V14.00,2013-02-12 02:51:00,
2013-02-11 20:56:00,34.0,17.3,28.58,NE,45,0.0,0.0,50,0.00,,---,0.00,VWS V14.00,2013-02-12 02:56:00,
2013-02-11 21:01:00,34.0,17.3,28.58,NE,45,0.0,0.0,50,0.00,,---,0.00,VWS V14.00,2013-02-12 03:01:00,
2013-02-11 21:06:00,34.0,17.3,28.58,NE,45,0.0,0.0,50,0.00,,---,0.00,VWS V14.00,2013-02-12 03:06:00,
2013-02-11 21:11:00,34.0,17.3,28.58,NE,45,0.0,0.0,50,0.00,,---,0.00,VWS V14.00,2013-02-12 03:11:00,
2013-02-11 21:16:00,33.8,17.1,28.61,NE,45,0.0,0.0,50,0.00,,---,0.00,VWS V14.00,2013-02-12 03:16:00,
2013-02-11 21:21:00,33.8,17.1,28.61,NE,45,0.0,0.0,50,0.00,,---,0.00,VWS V14.00,2013-02-12 03:21:00,
2013-02-11 21:26:00,33.8,17.1,28.61,NE,45,0.0,0.0,50,0.00,,---,0.00,VWS V14.00,2013-02-12 03:26:00,
2013-02-11 21:31:00,33.8,17.6,28.61,NE,45,0.0,0.0,51,0.00,,---,0.00,VWS V14.00,2013-02-12 03:31:00,
2013-02-11 21:37:00,33.8,17.6,28.61,NE,45,0.0,0.0,51,0.00,,---,0.00,VWS V14.00,2013-02-12 03:37:00,
2013-02-11 21:42:00,33.6,17.4,28.61,NE,45,0.0,0.0,51,0.00,,---,0.00,VWS V14.00,2013-02-12 03:42:00,
2013-02-11 21:47:00,33.6,17.4,28.64,NE,45,0.0,0.0,51,0.00,,---,0.00,VWS V14.00,2013-02-12 03:47:00,
2013-02-11 21:52:00,33.4,17.3,28.64,NE,45,0.0,0.0,51,0.00,,---,0.00,VWS V14.00,2013-02-12 03:52:00,
2013-02-11 21:57:00,33.4,17.3,28.64,NE,45,0.0,0.0,51,0.00,,---,0.00,VWS V14.00,2013-02-12 03:57:00,
2013-02-11 22:02:00,33.3,17.5,28.64,NE,45,0.0,0.0,52,0.00,,---,0.00,VWS V14.00,2013-02-12 04:02:00,
2013-02-11 22:07:00,33.3,17.5,28.64,NE,45,0.0,0.0,52,0.00,,---,0.00,VWS V14.00,2013-02-12 04:07:00,
2013-02-11 22:12:00,33.1,17.8,28.64,NE,45,0.0,0.0,53,0.00,,---,0.00,VWS V14.00,2013-02-12 04:12:00,
2013-02-11 22:18:00,32.9,17.2,28.64,NE,45,0.0,0.0,52,0.00,,---,0.00,VWS V14.00,2013-02-12 04:18:00,
2013-02-11 22:23:00,32.9,17.2,28.64,NE,45,0.0,0.0,52,0.00,,---,0.00,VWS V14.00,2013-02-12 04:23:00,
2013-02-11 22:28:00,32.7,17.0,28.64,NNE,22,1.3,1.3,52,0.00,,---,0.00,VWS V14.00,2013-02-12 04:28:00,
2013-02-11 22:33:00,32.7,17.0,28.64,NNE,22,1.1,1.1,52,0.00,,---,0.00,VWS V14.00,2013-02-12 04:33:00,
2013-02-11 22:38:00,32.5,16.9,28.64,NNE,22,0.0,0.0,52,0.00,,---,0.00,VWS V14.00,2013-02-12 04:38:00,
2013-02-11 22:44:00,32.5,17.3,28.64,NE,45,0.0,0.0,53,0.00,,---,0.00,VWS V14.00,2013-02-12 04:44:00,
2013-02-11 22:49:00,32.4,17.1,28.64,NE,45,0.0,0.0,53,0.00,,---,0.00,VWS V14.00,2013-02-12 04:49:00,
2013-02-11 22:54:00,32.0,16.8,28.64,North,0,0.0,1.3,53,0.00,,---,0.00,VWS V14.00,2013-02-12 04:54:00,
2013-02-11 22:59:00,31.8,16.6,28.64,NE,45,0.0,0.0,53,0.00,,---,0.00,VWS V14.00,2013-02-12 04:59:00,
2013-02-11 23:01:00,31.6,16.5,28.64,NE,45,0.0,0.0,53,0.00,,---,0.00,VWS V14.00,2013-02-12 05:01:00,
2013-02-11 23:02:00,31.6,16.5,28.64,NE,45,1.6,1.6,53,0.00,,---,0.00,VWS V14.00,2013-02-12 05:02:00,
2013-02-11 23:03:00,31.5,16.3,28.64,NE,45,0.0,1.6,53,0.00,,---,0.00,VWS V14.00,2013-02-12 05:03:00,
2013-02-11 23:08:00,31.5,16.3,28.64,NE,45,0.0,0.0,53,0.00,,---,0.00,VWS V14.00,2013-02-12 05:08:00,
2013-02-11 23:14:00,31.3,16.6,28.64,NE,45,0.0,0.0,54,0.00,,---,0.00,VWS V14.00,2013-02-12 05:14:00,
2013-02-11 23:19:00,31.3,16.6,28.64,NE,45,0.0,0.0,54,0.00,,---,0.00,VWS V14.00,2013-02-12 05:19:00,
2013-02-11 23:24:00,31.1,16.4,28.64,NE,45,0.0,0.0,54,0.00,,---,0.00,VWS V14.00,2013-02-12 05:24:00,
2013-02-11 23:29:00,30.9,16.7,28.64,NE,45,0.0,0.0,55,0.00,,---,0.00,VWS V14.00,2013-02-12 05:29:00,
2013-02-11 23:35:00,30.9,17.1,28.64,NE,45,0.0,0.0,56,0.00,,---,0.00,VWS V14.00,2013-02-12 05:35:00,
2013-02-11 23:40:00,30.4,16.2,28.64,NE,45,0.0,0.0,55,0.00,,---,0.00,VWS V14.00,2013-02-12 05:40:00,
2013-02-11 23:45:00,30.4,16.6,28.64,NE,45,0.0,0.0,56,0.00,,---,0.00,VWS V14.00,2013-02-12 05:45:00,
2013-02-11 23:50:00,30.4,16.6,28.67,NE,45,0.0,0.0,56,0.00,,---,0.00,VWS V14.00,2013-02-12 05:50:00,
2013-02-11 23:55:00,30.4,16.6,28.67,NE,45,0.0,0.0,56,0.00,,---,0.00,VWS V14.00,2013-02-12 05:55:00,